Amiret, Minnesota
Current Conditions -  °F | °C
As of 2:13 PM on Thursday 30 Oct 2014 (Local Time) from KTKC Reporting Station
Overcast Overcast  
Wind Chill: 44°   Ceiling: 2600
Heat Index: 50°   Visibility: 10mi
Dew Point: 41°   Wind: 17mph
Humidity: 73%   Direction: 350°N
Pressure: 30.14"   Gusts: 28mph
Location:  44.2253°N, 95.6512°W
Report Text: KTKC 301913Z AUTO 35015G24KT 10SM SCT019 BKN026 OVC031 10/05 A3014 RMK AO2 T00980051
Loading
Personal Weather Stations






























Interactive Weather Map
Tropical Storm Tracking
New forecast layout! Learn more

10-Day Weather Forecast

Advertisements
Track Severe Weather on mobile